createdAt,value
2018-11-25T00:01:42.876Z,77.80
2018-11-25T00:04:15.690Z,77.80
2018-11-25T00:06:50.709Z,77.80
2018-11-25T00:09:28.876Z,77.60
2018-11-25T00:12:39.550Z,77.60
2018-11-25T00:15:17.023Z,77.70
2018-11-25T00:17:53.172Z,77.60
2018-11-25T00:20:44.852Z,77.60
2018-11-25T00:23:33.398Z,77.70
2018-11-25T00:26:24.484Z,77.60
2018-11-25T00:29:14.207Z,77.60
2018-11-25T00:32:03.002Z,77.90
2018-11-25T00:34:42.537Z,78.00
2018-11-25T00:37:33.047Z,78.20
2018-11-25T00:40:19.778Z,78.30
2018-11-25T00:42:52.791Z,78.40
2018-11-25T00:45:34.422Z,78.40
2018-11-25T00:48:09.243Z,78.40
2018-11-25T00:50:41.439Z,78.30
2018-11-25T00:53:22.230Z,78.30
2018-11-25T00:56:12.187Z,78.10
2018-11-25T00:59:05.627Z,77.90
2018-11-25T01:01:41.560Z,77.90
2018-11-25T01:04:29.240Z,77.30
2018-11-25T01:07:11.774Z,76.60
2018-11-25T01:10:00.361Z,76.20
2018-11-25T01:12:53.496Z,75.80
2018-11-25T01:15:43.391Z,75.60
2018-11-25T01:18:19.538Z,75.40
2018-11-25T01:21:09.428Z,76.00
2018-11-25T01:23:58.006Z,75.90
2018-11-25T01:26:47.532Z,75.50
2018-11-25T01:29:23.617Z,75.00
2018-11-25T01:32:02.604Z,74.90
2018-11-25T01:35:01.040Z,74.90
2018-11-25T01:37:33.493Z,75.00
2018-11-25T01:40:23.004Z,75.10
2018-11-25T01:43:11.924Z,75.20
2018-11-25T01:45:50.711Z,75.50
2018-11-25T01:48:43.821Z,75.70
2018-11-25T01:51:32.252Z,75.80
2018-11-25T01:54:08.669Z,76.90
2018-11-25T01:56:51.969Z,76.30
2018-11-25T01:59:29.208Z,76.40
2018-11-25T02:02:08.848Z,76.40
2018-11-25T02:04:49.339Z,76.40
2018-11-25T02:07:39.005Z,76.40
2018-11-25T02:10:28.660Z,76.50
2018-11-25T02:13:19.838Z,76.60
2018-11-25T02:15:57.952Z,76.60
2018-11-25T02:18:48.359Z,76.80
2018-11-25T02:21:22.566Z,77.00
2018-11-25T02:24:15.349Z,77.20
2018-11-25T02:27:06.333Z,77.30
2018-11-25T02:29:56.363Z,77.40
2018-11-25T02:32:45.371Z,77.70
2018-11-25T02:35:17.347Z,77.50
2018-11-25T02:38:08.487Z,77.30
2018-11-25T02:40:41.268Z,77.50
2018-11-25T02:43:33.088Z,77.30
2018-11-25T02:46:22.838Z,77.10
2018-11-25T02:48:56.213Z,76.80
2018-11-25T02:51:40.647Z,76.70
2018-11-25T02:54:15.329Z,76.60
2018-11-25T02:56:47.457Z,76.60
2018-11-25T02:59:37.262Z,76.70
2018-11-25T03:02:10.261Z,76.70
2018-11-25T03:04:56.759Z,76.70
2018-11-25T03:07:34.591Z,76.60
2018-11-25T03:10:13.567Z,76.80
2018-11-25T03:13:00.385Z,77.00
2018-11-25T03:15:43.167Z,76.90
2018-11-25T03:18:17.527Z,77.00
2018-11-25T03:20:54.861Z,77.10
2018-11-25T03:23:46.265Z,77.10
2018-11-25T03:26:23.098Z,77.10
2018-11-25T03:29:13.091Z,77.20
2018-11-25T03:31:46.323Z,77.40
2018-11-25T03:34:38.154Z,77.40
2018-11-25T03:37:11.139Z,77.50
2018-11-25T03:40:01.275Z,77.50
2018-11-25T03:42:39.380Z,77.40
2018-11-25T03:45:32.009Z,77.20
2018-11-25T03:48:05.096Z,77.40
2018-11-25T03:50:36.862Z,77.50
2018-11-25T03:54:32.014Z,77.50
2018-11-25T03:57:11.470Z,77.70
2018-11-25T03:59:53.428Z,77.60
2018-11-25T04:02:28.048Z,77.40
2018-11-25T04:05:16.808Z,77.50
2018-11-25T04:08:07.772Z,77.50
2018-11-25T04:11:00.645Z,77.60
2018-11-25T04:13:47.968Z,77.70
2018-11-25T04:16:37.217Z,77.80
2018-11-25T04:19:07.922Z,78.10
2018-11-25T04:21:59.738Z,78.00
2018-11-25T04:24:34.704Z,78.30
2018-11-25T04:27:11.543Z,79.10
2018-11-25T04:29:58.488Z,78.30
2018-11-25T04:32:36.517Z,78.30
2018-11-25T04:35:08.929Z,78.30
2018-11-25T04:37:58.462Z,78.40
2018-11-25T04:40:42.021Z,78.40
2018-11-25T04:43:15.041Z,78.40
2018-11-25T04:46:04.820Z,78.40
2018-11-25T04:48:40.310Z,78.40
2018-11-25T04:51:15.470Z,78.30
2018-11-25T04:54:05.450Z,78.30
2018-11-25T04:56:56.046Z,78.10
2018-11-25T04:59:30.570Z,77.90
2018-11-25T05:02:22.451Z,77.90
2018-11-25T05:05:02.630Z,77.90
2018-11-25T05:07:50.892Z,78.00
2018-11-25T05:10:23.026Z,78.00
2018-11-25T05:13:04.281Z,77.90
2018-11-25T05:15:38.814Z,77.70
2018-11-25T05:18:27.792Z,77.60
2018-11-25T05:21:00.096Z,77.80
2018-11-25T05:23:38.411Z,77.90
2018-11-25T05:26:28.512Z,77.90
2018-11-25T05:29:18.357Z,77.90
2018-11-25T05:31:53.237Z,77.70
2018-11-25T05:34:24.850Z,77.50
2018-11-25T05:36:56.723Z,77.40
2018-11-25T05:39:27.242Z,77.30
2018-11-25T05:42:03.010Z,77.40
2018-11-25T05:44:36.778Z,77.40
2018-11-25T05:47:07.059Z,77.30
2018-11-25T05:49:37.310Z,77.10
2018-11-25T05:52:28.115Z,77.00
2018-11-25T05:55:11.428Z,76.90
2018-11-25T05:57:53.916Z,76.80
2018-11-25T06:00:33.598Z,77.00
2018-11-25T06:03:25.473Z,76.90
2018-11-25T06:06:13.919Z,76.70
2018-11-25T06:08:53.814Z,76.30
2018-11-25T06:11:32.326Z,76.20
2018-11-25T06:14:13.658Z,76.20
2018-11-25T06:17:10.874Z,76.20
2018-11-25T06:19:49.263Z,76.00
2018-11-25T06:22:38.670Z,76.10
2018-11-25T06:25:15.563Z,76.10
2018-11-25T06:27:47.470Z,76.20
2018-11-25T06:30:25.799Z,76.30
2018-11-25T06:32:56.544Z,76.20
2018-11-25T06:35:47.162Z,76.30
2018-11-25T06:38:36.063Z,76.30
2018-11-25T06:41:06.118Z,76.40
2018-11-25T06:43:46.856Z,76.50
2018-11-25T06:46:20.334Z,76.50
2018-11-25T06:48:56.968Z,76.50
2018-11-25T06:51:34.765Z,76.50
2018-11-25T06:54:04.792Z,76.40
2018-11-25T06:56:53.432Z,76.20
2018-11-25T06:59:37.638Z,76.20
2018-11-25T07:02:09.455Z,76.20
2018-11-25T07:04:48.406Z,76.20
2018-11-25T07:07:22.619Z,76.10
2018-11-25T07:09:53.274Z,76.10
2018-11-25T07:12:30.348Z,76.30
2018-11-25T07:15:20.486Z,76.10
2018-11-25T07:17:56.987Z,76.30
2018-11-25T07:20:40.559Z,76.50
2018-11-25T07:23:13.534Z,76.60
2018-11-25T07:25:47.478Z,76.50
2018-11-25T07:28:18.985Z,76.80
2018-11-25T07:30:49.223Z,76.90
2018-11-25T07:33:19.703Z,77.00
2018-11-25T07:35:54.296Z,77.30
2018-11-25T07:38:35.819Z,77.40
2018-11-25T07:41:14.786Z,77.40
2018-11-25T07:43:44.641Z,77.40
2018-11-25T07:46:20.847Z,77.50
2018-11-25T07:48:50.003Z,77.50
2018-11-25T07:51:21.755Z,77.50
2018-11-25T07:53:53.469Z,77.50
2018-11-25T07:56:27.399Z,77.50
2018-11-25T07:58:57.778Z,77.60
2018-11-25T08:01:31.095Z,77.70
2018-11-25T08:04:02.915Z,77.60
2018-11-25T08:06:39.181Z,77.60
2018-11-25T08:09:09.492Z,77.30
2018-11-25T08:11:39.344Z,77.30
2018-11-25T08:14:11.678Z,77.20
2018-11-25T08:16:48.279Z,77.20
2018-11-25T08:19:31.075Z,77.00
2018-11-25T08:22:05.111Z,77.10
2018-11-25T08:24:53.599Z,77.30
2018-11-25T08:27:43.994Z,77.40
2018-11-25T08:30:33.594Z,77.30
2018-11-25T08:33:23.933Z,77.40
2018-11-25T08:36:03.746Z,77.40
2018-11-25T08:38:39.879Z,77.40
2018-11-25T08:41:22.406Z,77.30
2018-11-25T08:44:00.520Z,77.30
2018-11-25T08:46:42.991Z,77.20
2018-11-25T08:49:37.307Z,76.90
2018-11-25T08:52:15.909Z,76.60
2018-11-25T08:54:53.166Z,76.50
2018-11-25T08:57:51.058Z,76.60
2018-11-25T09:00:35.760Z,76.70
2018-11-25T09:03:14.002Z,77.00
2018-11-25T09:06:05.749Z,77.30
2018-11-25T09:08:54.328Z,77.40
2018-11-25T09:11:36.368Z,77.60
2018-11-25T09:14:28.559Z,77.60
2018-11-25T09:17:11.967Z,77.80
2018-11-25T09:19:54.772Z,78.00
2018-11-25T09:22:44.731Z,78.00
2018-11-25T09:25:33.568Z,77.70
2018-11-25T09:28:08.331Z,77.90
2018-11-25T09:31:04.661Z,77.70
2018-11-25T09:33:39.651Z,77.30
2018-11-25T09:36:28.355Z,77.50
2018-11-25T09:39:07.521Z,77.50
2018-11-25T09:41:57.583Z,77.50
2018-11-25T09:44:30.982Z,77.80
2018-11-25T09:47:11.372Z,78.00
2018-11-25T09:50:03.490Z,78.20
2018-11-25T09:52:56.813Z,78.10
2018-11-25T09:55:47.003Z,77.90
2018-11-25T09:58:39.032Z,78.20
2018-11-25T10:01:48.337Z,77.90
2018-11-25T10:04:34.859Z,78.40
2018-11-25T10:07:23.725Z,78.20
2018-11-25T10:10:17.535Z,78.10
2018-11-25T10:13:08.006Z,77.50
2018-11-25T10:15:53.561Z,77.40
2018-11-25T10:18:37.549Z,77.40
2018-11-25T10:21:13.983Z,78.20
2018-11-25T10:24:04.902Z,78.30
2018-11-25T10:26:53.251Z,77.90
2018-11-25T10:30:10.489Z,78.50
2018-11-25T10:32:47.792Z,77.70
2018-11-25T10:35:37.467Z,77.80
2018-11-25T10:38:42.504Z,78.60
2018-11-25T10:41:34.366Z,78.50
2018-11-25T10:44:25.607Z,78.30
2018-11-25T10:46:58.912Z,77.90
2018-11-25T10:49:34.792Z,78.20
2018-11-25T10:52:08.575Z,78.20
2018-11-25T10:54:41.501Z,77.90
2018-11-25T10:57:20.277Z,77.40
2018-11-25T11:00:36.598Z,76.80
2018-11-25T11:07:05.755Z,76.00
2018-11-25T11:09:56.678Z,75.90
2018-11-25T11:12:45.811Z,75.70
2018-11-25T11:15:27.556Z,75.70
2018-11-25T11:18:19.406Z,75.60
2018-11-25T11:21:12.157Z,75.90
2018-11-25T11:24:04.764Z,75.90
2018-11-25T11:26:38.417Z,75.40
2018-11-25T11:29:27.226Z,75.40
2018-11-25T11:32:07.562Z,75.60
2018-11-25T11:35:00.247Z,74.50
2018-11-25T11:37:44.687Z,73.70
2018-11-25T11:40:34.798Z,73.40
2018-11-25T11:43:23.720Z,73.80
2018-11-25T11:46:05.788Z,74.40
2018-11-25T11:48:39.571Z,75.00
2018-11-25T11:51:30.693Z,75.30
2018-11-25T11:54:24.123Z,75.10
2018-11-25T11:56:57.020Z,74.50
2018-11-25T11:59:27.799Z,74.60
2018-11-25T12:02:01.187Z,74.10
2018-11-25T12:04:51.461Z,74.00
2018-11-25T12:07:40.921Z,74.30
2018-11-25T12:10:21.573Z,73.90
2018-11-25T12:13:02.726Z,73.60
2018-11-25T12:15:52.957Z,73.80
2018-11-25T12:18:29.123Z,73.60
2018-11-25T12:21:06.914Z,73.80
2018-11-25T12:23:45.523Z,73.70
2018-11-25T12:26:26.360Z,74.50
2018-11-25T12:29:14.647Z,73.60
2018-11-25T12:31:54.076Z,73.60
2018-11-25T12:34:35.446Z,73.60
2018-11-25T12:37:14.902Z,73.50
2018-11-25T12:40:18.188Z,73.50
2018-11-25T12:43:13.837Z,73.20
2018-11-25T12:46:04.025Z,73.40
2018-11-25T12:48:57.325Z,73.40
2018-11-25T12:51:28.945Z,73.30
2018-11-25T12:54:04.667Z,73.30
2018-11-25T12:56:55.297Z,73.10
2018-11-25T12:59:46.667Z,73.20
2018-11-25T13:02:23.952Z,72.70
2018-11-25T13:05:27.028Z,72.90
2018-11-25T13:08:05.536Z,72.80
2018-11-25T13:10:51.330Z,73.10
2018-11-25T13:13:36.362Z,72.80
2018-11-25T13:16:21.475Z,73.40
2018-11-25T13:19:04.026Z,73.40
2018-11-25T13:21:39.157Z,73.70
2018-11-25T13:24:26.630Z,73.30
2018-11-25T13:27:01.164Z,73.40
2018-11-25T13:29:38.528Z,73.50
2018-11-25T13:32:19.868Z,73.40
2018-11-25T13:34:55.982Z,73.00
2018-11-25T13:37:31.112Z,73.10
2018-11-25T13:40:09.098Z,73.00
2018-11-25T13:42:48.316Z,73.20
2018-11-25T13:45:34.138Z,73.30
2018-11-25T13:48:23.871Z,73.30
2018-11-25T13:51:25.043Z,73.10
2018-11-25T13:54:06.580Z,72.60
2018-11-25T13:56:40.544Z,72.60
2018-11-25T13:59:22.958Z,72.50
2018-11-25T14:01:52.912Z,72.70
2018-11-25T14:04:25.748Z,73.00
2018-11-25T14:06:57.095Z,73.40
2018-11-25T14:09:32.494Z,73.50
2018-11-25T14:12:06.787Z,73.40
2018-11-25T14:14:55.722Z,73.30
2018-11-25T14:18:02.775Z,73.30
2018-11-25T14:20:36.287Z,73.50
2018-11-25T14:23:13.291Z,73.20
2018-11-25T14:25:48.832Z,73.40
2018-11-25T14:28:25.686Z,73.20
2018-11-25T14:30:57.930Z,73.40
2018-11-25T14:33:31.150Z,73.20
2018-11-25T14:36:04.000Z,72.90
2018-11-25T14:38:50.847Z,72.80
2018-11-25T14:41:39.679Z,72.90
2018-11-25T14:44:30.791Z,73.10
2018-11-25T14:47:12.626Z,73.20
2018-11-25T14:49:43.960Z,73.30
2018-11-25T14:52:21.812Z,73.40
2018-11-25T14:55:00.388Z,73.60
2018-11-25T14:57:55.976Z,73.80
2018-11-25T15:00:39.728Z,73.80
2018-11-25T15:03:12.120Z,73.80
2018-11-25T15:06:03.635Z,73.90
2018-11-25T15:08:53.919Z,74.00
2018-11-25T15:11:26.734Z,74.10
2018-11-25T15:14:11.851Z,74.30
2018-11-25T15:17:01.748Z,74.40
2018-11-25T15:19:32.554Z,74.50
2018-11-25T15:22:21.499Z,74.60
2018-11-25T15:25:11.309Z,74.60
2018-11-25T15:28:01.640Z,74.70
2018-11-25T15:30:36.068Z,74.70
2018-11-25T15:33:18.532Z,74.80
2018-11-25T15:36:06.139Z,74.80
2018-11-25T15:38:55.789Z,75.60
2018-11-25T15:41:28.773Z,74.90
2018-11-25T15:44:04.235Z,75.00
2018-11-25T15:46:37.617Z,75.00
2018-11-25T15:49:17.222Z,75.10
2018-11-25T15:51:51.875Z,75.10
2018-11-25T15:54:24.333Z,75.00
2018-11-25T15:56:56.304Z,75.00
2018-11-25T15:59:33.065Z,75.00
2018-11-25T16:02:06.708Z,75.00
2018-11-25T16:04:42.554Z,75.10
2018-11-25T16:07:14.305Z,75.00
2018-11-25T16:09:47.343Z,74.80
2018-11-25T16:12:23.460Z,74.80
2018-11-25T16:15:05.593Z,74.80
2018-11-25T16:17:37.289Z,74.80
2018-11-25T16:20:18.135Z,74.80
2018-11-25T16:23:06.805Z,74.80
2018-11-25T16:25:55.179Z,74.70
2018-11-25T16:28:47.201Z,74.90
2018-11-25T16:38:08.952Z,75.00
2018-11-25T16:40:40.436Z,75.20
2018-11-25T16:43:15.579Z,75.50
2018-11-25T16:45:55.176Z,75.50
2018-11-25T16:48:31.725Z,75.40
2018-11-25T16:51:04.129Z,75.50
2018-11-25T16:53:44.091Z,75.80
2018-11-25T16:56:17.163Z,75.90
2018-11-25T16:58:50.819Z,76.20
2018-11-25T17:01:41.937Z,76.40
2018-11-25T17:04:32.041Z,76.60
2018-11-25T17:07:22.217Z,76.70
2018-11-25T17:10:00.282Z,76.60
2018-11-25T17:12:35.229Z,76.50
2018-11-25T17:15:13.833Z,76.50
2018-11-25T17:17:46.487Z,76.50
2018-11-25T17:20:26.749Z,76.70
2018-11-25T17:23:05.215Z,76.70
2018-11-25T17:25:52.245Z,76.60
2018-11-25T17:28:33.261Z,76.60
2018-11-25T17:31:06.623Z,76.60
2018-11-25T17:33:56.136Z,76.50
2018-11-25T17:36:47.427Z,76.50
2018-11-25T17:39:37.236Z,76.50
2018-11-25T17:42:37.413Z,76.40
2018-11-25T17:45:14.951Z,76.40
2018-11-25T17:47:47.614Z,76.50
2018-11-25T17:50:36.853Z,76.30
2018-11-25T17:53:20.854Z,76.40
2018-11-25T17:55:59.849Z,76.50
2018-11-25T17:58:31.453Z,76.40
2018-11-25T18:01:11.080Z,76.50
2018-11-25T18:03:45.132Z,76.50
2018-11-25T18:06:18.662Z,76.50
2018-11-25T18:08:54.369Z,76.70
2018-11-25T18:11:29.080Z,76.80
2018-11-25T18:14:01.095Z,76.80
2018-11-25T18:16:44.890Z,76.90
2018-11-25T18:19:22.991Z,77.00
2018-11-25T18:22:13.112Z,77.10
2018-11-25T18:25:00.638Z,77.00
2018-11-25T18:27:32.909Z,77.00
2018-11-25T18:30:22.669Z,77.00
2018-11-25T18:32:53.309Z,77.00
2018-11-25T18:35:25.152Z,76.80
2018-11-25T18:37:59.877Z,76.20
2018-11-25T18:40:32.380Z,75.10
2018-11-25T18:43:06.495Z,74.30
2018-11-25T18:45:35.869Z,73.90
2018-11-25T18:48:08.407Z,73.40
2018-11-25T18:50:40.905Z,72.30
2018-11-25T18:53:11.992Z,72.10
2018-11-25T18:55:42.385Z,71.60
2018-11-25T18:58:18.171Z,71.10
2018-11-25T19:01:09.737Z,71.20
2018-11-25T19:03:47.850Z,71.00
2018-11-25T19:06:17.313Z,71.30
2018-11-25T19:08:48.215Z,71.00
2018-11-25T19:11:19.523Z,70.80
2018-11-25T19:13:51.096Z,70.60
2018-11-25T19:16:23.495Z,70.50
2018-11-25T19:18:58.736Z,70.70
2018-11-25T19:21:35.012Z,70.70
2018-11-25T19:24:20.117Z,70.80
2018-11-25T19:26:50.097Z,70.90
2018-11-25T19:29:21.337Z,71.00
2018-11-25T19:31:56.103Z,70.80
2018-11-25T19:34:26.279Z,70.60
2018-11-25T19:36:56.585Z,70.90
2018-11-25T19:39:29.019Z,70.50
2018-11-25T19:45:47.027Z,71.20
2018-11-25T19:48:18.926Z,71.20
2018-11-25T19:50:49.740Z,71.60
2018-11-25T19:53:44.745Z,71.50
2018-11-25T19:56:15.167Z,71.40
2018-11-25T19:58:48.240Z,71.30
2018-11-25T20:01:21.320Z,71.30
2018-11-25T20:03:57.626Z,71.50
2018-11-25T20:06:29.643Z,71.70
2018-11-25T20:09:05.775Z,71.90
2018-11-25T20:11:47.249Z,71.70
2018-11-25T20:14:29.871Z,71.70
2018-11-25T20:17:25.057Z,72.00
2018-11-25T20:19:55.486Z,72.30
2018-11-25T20:22:30.580Z,72.30
2018-11-25T20:25:08.369Z,72.50
2018-11-25T20:27:58.350Z,72.80
2018-11-25T20:30:46.736Z,73.10
2018-11-25T20:36:26.834Z,73.60
2018-11-25T20:42:17.150Z,73.70
2018-11-25T20:44:48.454Z,73.90
2018-11-25T20:47:21.994Z,74.10
2018-11-25T20:50:18.761Z,74.10
2018-11-25T20:53:21.285Z,74.30
2018-11-25T20:55:56.369Z,74.20
2018-11-25T20:58:37.425Z,74.30
2018-11-25T21:01:13.144Z,74.40
2018-11-25T21:03:52.649Z,74.20
2018-11-25T21:06:28.322Z,74.20
2018-11-25T21:09:18.475Z,74.20
2018-11-25T21:11:50.005Z,74.10
2018-11-25T21:14:25.859Z,74.10
2018-11-25T21:16:59.012Z,74.10
2018-11-25T21:19:31.053Z,74.10
2018-11-25T21:22:10.521Z,74.10
2018-11-25T21:24:42.684Z,74.00
2018-11-25T21:27:32.143Z,73.90
2018-11-25T21:30:06.689Z,73.70
2018-11-25T21:32:48.397Z,73.70
2018-11-25T21:35:20.324Z,73.60
2018-11-25T21:37:52.202Z,73.60
2018-11-25T21:40:27.236Z,73.50
2018-11-25T21:49:46.851Z,73.50
2018-11-25T21:52:19.776Z,73.70
2018-11-25T21:55:15.484Z,73.70
2018-11-25T21:57:50.162Z,73.40
2018-11-25T22:00:40.754Z,73.50
2018-11-25T22:03:14.066Z,73.30
2018-11-25T22:05:45.648Z,73.40
2018-11-25T22:08:20.376Z,73.70
2018-11-25T22:11:01.104Z,74.00
2018-11-25T22:13:39.564Z,74.20
2018-11-25T22:16:12.544Z,73.90
2018-11-25T22:19:02.603Z,73.90
2018-11-25T22:21:36.448Z,73.30
2018-11-25T22:24:13.417Z,73.00
2018-11-25T22:26:46.429Z,72.80
2018-11-25T22:29:36.249Z,72.70
2018-11-25T22:32:09.421Z,72.50
2018-11-25T22:34:43.223Z,72.60
2018-11-25T22:37:43.022Z,72.50
2018-11-25T22:40:17.971Z,72.50
2018-11-25T22:42:51.737Z,72.60
2018-11-25T22:45:24.533Z,72.20
2018-11-25T22:48:08.907Z,72.20
2018-11-25T22:50:40.608Z,72.50
2018-11-25T22:53:14.346Z,72.10
2018-11-25T22:55:45.941Z,72.40
2018-11-25T22:58:20.339Z,72.20
2018-11-25T23:00:59.372Z,72.00
2018-11-25T23:03:33.743Z,71.90
2018-11-25T23:06:56.837Z,72.00
2018-11-25T23:09:29.139Z,72.00
2018-11-25T23:12:15.410Z,71.80
2018-11-25T23:14:48.152Z,71.90
2018-11-25T23:17:38.063Z,71.90
2018-11-25T23:20:18.621Z,71.70
2018-11-25T23:23:11.680Z,71.60
2018-11-25T23:25:49.899Z,71.70
2018-11-25T23:28:20.628Z,71.90
2018-11-25T23:31:12.346Z,72.00
2018-11-25T23:33:46.058Z,72.20
2018-11-25T23:36:24.021Z,71.90
2018-11-25T23:38:55.163Z,71.90
2018-11-25T23:41:25.171Z,71.50
2018-11-25T23:44:03.476Z,71.50
2018-11-25T23:46:35.346Z,71.70
2018-11-25T23:49:07.728Z,71.80
2018-11-25T23:51:59.582Z,72.10
2018-11-25T23:54:35.319Z,72.20
2018-11-25T23:57:07.402Z,72.00
2018-11-25T23:59:39.148Z,71.80
